Time;durP1;ratioP1;P1;durP2;ratioP2;P2;SDS_P1;SDS_P2;PMS_P1;PMS_P2;Temp;Humidity;BMP_temperature;BMP_pressure;BME280_temperature;BME280_humidity;BME280_pressure;Samples;Min_cycle;Max_cycle;Signal;HPM_P1;HPM_P2
2022/11/03 00:02:04;;;;;;;103.70;41.20;;;15.40;99.90;;;;;;5016586;28;20034;-93
2022/11/03 00:04:31;;;;;;;90.72;38.30;;;15.30;99.90;;;;;;5015342;28;20109;-93
2022/11/03 00:06:57;;;;;;;98.38;38.92;;;15.20;99.90;;;;;;5016057;28;20072;-93
2022/11/03 00:09:25;;;;;;;94.65;37.95;;;15.20;99.90;;;;;;5015655;28;20032;-93
2022/11/03 00:11:52;;;;;;;116.85;42.80;;;15.10;99.90;;;;;;5015438;28;20034;-93
2022/11/03 00:14:19;;;;;;;92.60;38.13;;;15.10;99.90;;;;;;5015880;28;20049;-93
2022/11/03 00:16:46;;;;;;;90.97;39.13;;;15.10;99.90;;;;;;5016322;28;20472;-93
2022/11/03 00:19:15;;;;;;;90.25;38.38;;;15.20;99.90;;;;;;5017513;28;20049;-93
2022/11/03 00:21:46;;;;;;;85.18;38.40;;;15.30;99.90;;;;;;5016805;28;20037;-93
2022/11/03 00:24:12;;;;;;;76.90;37.30;;;15.40;99.90;;;;;;5016461;28;20057;-93
2022/11/03 00:26:39;;;;;;;85.10;38.60;;;15.50;99.90;;;;;;5015459;28;20438;-92
2022/11/03 00:29:12;;;;;;;88.65;41.53;;;15.60;99.90;;;;;;4997049;28;20026;-92
2022/11/03 00:31:40;;;;;;;94.15;42.05;;;15.70;99.90;;;;;;5015736;28;20037;-93
2022/11/03 00:34:07;;;;;;;88.10;43.17;;;15.80;99.90;;;;;;5015494;28;20052;-93
2022/11/03 00:36:37;;;;;;;103.43;47.00;;;15.90;99.90;;;;;;5015562;28;20029;-93
2022/11/03 00:39:05;;;;;;;109.15;49.10;;;16.00;99.90;;;;;;5016284;28;20030;-93
2022/11/03 00:41:32;;;;;;;109.80;48.08;;;16.10;99.90;;;;;;5015180;28;20022;-93
2022/11/03 00:43:59;;;;;;;119.40;51.80;;;16.20;99.90;;;;;;4995374;28;20026;-93
2022/11/03 00:46:26;;;;;;;117.82;51.42;;;16.30;99.90;;;;;;5014901;28;20124;-93
2022/11/03 00:48:53;;;;;;;122.20;53.47;;;16.30;99.90;;;;;;5014236;28;20038;-93
2022/11/03 00:51:28;;;;;;;112.10;50.55;;;16.40;99.90;;;;;;4995278;28;20034;-93
2022/11/03 00:53:58;;;;;;;118.38;53.00;;;16.50;99.90;;;;;;5014798;28;20022;-94
2022/11/03 00:56:33;;;;;;;116.43;52.15;;;16.50;99.90;;;;;;5014491;28;20030;-92
2022/11/03 00:59:01;;;;;;;134.50;55.85;;;16.60;99.90;;;;;;5014897;28;20033;-93
2022/11/03 01:01:32;;;;;;;131.88;55.60;;;16.60;99.90;;;;;;4997982;28;20094;-94
2022/11/03 01:06:49;;;;;;;127.40;57.95;;;16.70;99.90;;;;;;5014258;28;20042;-93
2022/11/03 01:09:39;;;;;;;118.00;53.75;;;16.70;99.90;;;;;;5015497;28;20033;-93
2022/11/03 01:12:11;;;;;;;127.80;58.00;;;16.70;99.90;;;;;;5014619;28;20026;-92
2022/11/03 01:14:52;;;;;;;121.75;55.38;;;16.70;99.90;;;;;;4997596;28;20486;-93
2022/11/03 01:17:26;;;;;;;119.68;57.25;;;16.70;99.90;;;;;;5015960;28;20076;-93
2022/11/03 01:19:53;;;;;;;127.78;58.28;;;16.70;99.90;;;;;;5014837;28;20036;-93
2022/11/03 01:22:23;;;;;;;120.70;59.65;;;16.70;99.90;;;;;;5014254;28;20403;-93
2022/11/03 01:24:53;;;;;;;123.70;55.08;;;16.70;99.90;;;;;;5014476;28;20037;-93
2022/11/03 01:27:24;;;;;;;108.85;52.15;;;16.70;99.90;;;;;;5014317;28;20042;-93
2022/11/03 01:29:51;;;;;;;121.20;53.55;;;16.70;99.90;;;;;;5014375;28;20052;-93
2022/11/03 01:32:17;;;;;;;120.60;56.15;;;16.70;99.90;;;;;;5014288;28;20026;-93
2022/11/03 01:34:44;;;;;;;118.38;55.95;;;16.70;99.90;;;;;;4994910;28;20030;-93
2022/11/03 01:37:10;;;;;;;120.45;53.75;;;16.70;99.90;;;;;;5013963;28;20021;-92
2022/11/03 01:39:37;;;;;;;106.07;52.10;;;16.60;99.90;;;;;;5013977;28;20054;-93
2022/11/03 01:42:04;;;;;;;115.68;53.10;;;16.60;99.90;;;;;;5014601;28;20026;-93
2022/11/03 01:44:42;;;;;;;116.15;55.47;;;16.70;99.90;;;;;;5014405;28;20045;-93
2022/11/03 01:47:36;;;;;;;104.15;48.42;;;16.60;99.90;;;;;;5014004;28;20159;-93
2022/11/03 01:50:09;;;;;;;103.55;51.85;;;16.60;99.90;;;;;;4986536;28;20389;-92
2022/11/03 01:52:47;;;;;;;102.53;49.47;;;16.50;99.90;;;;;;4997789;28;20026;-93
2022/11/03 01:55:27;;;;;;;112.15;49.58;;;16.50;99.90;;;;;;4997262;28;20042;-92
2022/11/03 01:58:20;;;;;;;109.18;48.55;;;16.50;99.90;;;;;;4997168;28;20061;-93
2022/11/03 02:00:51;;;;;;;114.80;51.22;;;16.50;99.90;;;;;;4997459;28;20087;-92
2022/11/03 02:03:20;;;;;;;112.80;52.22;;;16.40;99.90;;;;;;4997177;28;20026;-93
2022/11/03 02:05:49;;;;;;;113.10;52.15;;;16.40;99.90;;;;;;4997302;28;20125;-94
2022/11/03 02:08:30;;;;;;;114.43;52.38;;;16.40;99.90;;;;;;5013675;28;20045;-93
2022/11/03 02:10:57;;;;;;;114.03;52.15;;;16.30;99.90;;;;;;4996877;28;20037;-93
2022/11/03 02:13:27;;;;;;;109.78;50.70;;;16.30;99.90;;;;;;4996851;28;20022;-92
2022/11/03 02:15:58;;;;;;;114.85;51.30;;;16.20;99.90;;;;;;4996926;28;20034;-91
2022/11/03 02:18:32;;;;;;;113.97;52.60;;;16.20;99.90;;;;;;4996833;28;20022;-93
2022/11/03 02:21:24;;;;;;;116.07;50.45;;;16.20;99.90;;;;;;5012952;28;20058;-93
2022/11/03 02:24:00;;;;;;;117.32;53.08;;;16.20;99.90;;;;;;4981191;28;20041;-93
2022/11/03 02:26:27;;;;;;;117.47;51.63;;;16.20;99.90;;;;;;4996701;28;20038;-92
2022/11/03 02:28:54;;;;;;;110.93;49.72;;;16.20;99.90;;;;;;5013044;28;20105;-93
2022/11/03 02:32:04;;;;;;;114.07;52.17;;;16.10;99.90;;;;;;4996577;28;20033;-92
2022/11/03 02:34:37;;;;;;;109.22;49.22;;;16.10;99.90;;;;;;4950922;28;20368;-92
2022/11/03 02:37:30;;;;;;;116.85;50.45;;;16.10;99.90;;;;;;4996436;28;20057;-92
2022/11/03 02:40:00;;;;;;;109.10;49.67;;;16.10;99.90;;;;;;4980302;28;20040;-93
2022/11/03 02:42:28;;;;;;;120.68;52.63;;;16.00;99.90;;;;;;4996743;28;20029;-92
2022/11/03 02:44:59;;;;;;;119.13;51.53;;;16.00;99.90;;;;;;4996469;28;20029;-93
2022/11/03 02:47:29;;;;;;;117.95;52.30;;;16.00;99.90;;;;;;5012678;28;20030;-92
2022/11/03 02:49:58;;;;;;;125.13;50.83;;;16.00;99.90;;;;;;5021774;28;20053;-92
2022/11/03 02:52:42;;;;;;;125.60;51.75;;;16.00;99.90;;;;;;5012742;28;20037;-92
2022/11/03 02:55:18;;;;;;;146.88;51.67;;;16.00;99.90;;;;;;5012739;28;20160;-93
2022/11/03 02:58:00;;;;;;;170.93;55.53;;;16.00;99.90;;;;;;5012709;28;20033;-92
2022/11/03 03:00:30;;;;;;;180.45;54.80;;;16.00;99.90;;;;;;5012851;28;20092;-92
2022/11/03 03:03:12;;;;;;;198.63;58.08;;;16.00;99.90;;;;;;5012853;28;20041;-92
2022/11/03 03:05:44;;;;;;;257.60;61.67;;;15.90;99.90;;;;;;5012584;28;20046;-92
2022/11/03 03:08:13;;;;;;;374.63;59.95;;;16.00;99.90;;;;;;5012673;28;20191;-93
2022/11/03 03:10:45;;;;;;;290.58;58.03;;;16.00;99.90;;;;;;5012460;28;20064;-93
2022/11/03 03:13:18;;;;;;;362.50;57.97;;;15.90;99.90;;;;;;5013968;28;20034;-93
2022/11/03 03:16:16;;;;;;;283.65;61.63;;;15.90;99.90;;;;;;5016057;28;20042;-94
2022/11/03 03:19:00;;;;;;;353.52;63.72;;;15.80;99.90;;;;;;5010398;28;20044;-92
2022/11/03 03:21:35;;;;;;;354.38;58.90;;;15.80;99.90;;;;;;5016185;28;20081;-93
2022/11/03 03:24:08;;;;;;;333.10;57.35;;;15.60;99.90;;;;;;5015974;28;20033;-93
2022/11/03 03:26:43;;;;;;;277.63;52.67;;;15.50;99.90;;;;;;5015904;28;20080;-92
2022/11/03 03:29:15;;;;;;;263.65;52.97;;;15.40;99.90;;;;;;5016439;28;20033;-93
2022/11/03 03:31:48;;;;;;;196.23;44.03;;;15.30;99.90;;;;;;5015873;28;20053;-92
2022/11/03 03:34:19;;;;;;;266.27;50.20;;;15.30;99.90;;;;;;5015816;28;20022;-93
2022/11/03 03:36:48;;;;;;;172.05;41.97;;;15.20;99.90;;;;;;5015767;28;20034;-92
2022/11/03 03:39:17;;;;;;;137.77;41.53;;;15.10;99.90;;;;;;5016090;28;20030;-93
2022/11/03 03:41:48;;;;;;;199.43;44.88;;;15.00;99.90;;;;;;5015694;28;20029;-93
2022/11/03 03:44:16;;;;;;;267.15;44.53;;;15.00;99.90;;;;;;5015615;28;20046;-92
2022/11/03 03:46:56;;;;;;;151.52;38.55;;;14.90;99.90;;;;;;5032119;28;20089;-92
2022/11/03 03:49:23;;;;;;;175.75;38.17;;;14.80;99.90;;;;;;5031887;28;20510;-92
2022/11/03 03:51:50;;;;;;;138.27;37.10;;;14.80;99.90;;;;;;5031946;28;20125;-94
2022/11/03 03:54:17;;;;;;;190.68;40.08;;;14.70;99.90;;;;;;5015839;28;20029;-93
2022/11/03 03:57:01;;;;;;;103.43;34.58;;;14.70;99.90;;;;;;5032410;28;20487;-92
2022/11/03 03:59:32;;;;;;;96.32;33.17;;;14.70;99.90;;;;;;5015583;28;20038;-94
2022/11/03 04:01:58;;;;;;;105.95;33.03;;;14.60;99.90;;;;;;5032022;28;20562;-93
2022/11/03 04:04:28;;;;;;;112.57;36.15;;;14.60;99.90;;;;;;5015609;28;20026;-92
2022/11/03 04:09:39;;;;;;;148.90;37.90;;;14.50;99.90;;;;;;5031788;28;20026;-92
2022/11/03 04:23:16;;;;;;;101.18;32.38;;;14.30;99.90;;;;;;5031302;28;20554;-92
2022/11/03 04:25:55;;;;;;;122.68;32.13;;;14.30;99.90;;;;;;5031111;28;20092;-92
2022/11/03 04:28:24;;;;;;;177.50;37.05;;;14.30;99.90;;;;;;5014740;28;20036;-92
2022/11/03 04:30:50;;;;;;;94.75;29.55;;;14.30;99.90;;;;;;5014767;28;20026;-91
2022/11/03 04:33:20;;;;;;;133.20;32.63;;;14.30;99.90;;;;;;5031397;28;20453;-93
2022/11/03 04:35:47;;;;;;;167.13;35.22;;;14.20;99.90;;;;;;5014446;28;20428;-92
2022/11/03 04:38:26;;;;;;;107.30;31.80;;;14.20;99.90;;;;;;5031123;28;20025;-92
2022/11/03 04:40:58;;;;;;;131.00;29.63;;;14.20;99.90;;;;;;5014421;28;20029;-91
2022/11/03 04:43:37;;;;;;;264.08;35.45;;;14.20;99.90;;;;;;5014655;28;20034;-91
2022/11/03 04:46:08;;;;;;;187.10;32.53;;;14.20;99.90;;;;;;5014507;28;20045;-91
2022/11/03 04:48:35;;;;;;;159.02;31.17;;;14.10;99.90;;;;;;5014567;28;20045;-92
2022/11/03 04:51:26;;;;;;;195.63;32.20;;;14.10;99.90;;;;;;5013929;28;20062;-92
2022/11/03 04:53:57;;;;;;;214.25;33.90;;;14.00;99.90;;;;;;4998139;28;20025;-92
2022/11/03 04:56:25;;;;;;;211.27;32.97;;;14.00;99.90;;;;;;4998090;28;20029;-93
2022/11/03 04:58:52;;;;;;;255.27;34.97;;;14.00;99.90;;;;;;4998517;28;20380;-93
2022/11/03 05:01:22;;;;;;;152.68;26.55;;;14.00;99.90;;;;;;4997896;28;20025;-92
2022/11/03 05:03:55;;;;;;;163.88;26.38;;;14.00;99.90;;;;;;4997983;28;20029;-91
2022/11/03 05:06:31;;;;;;;254.52;35.72;;;13.90;99.90;;;;;;4997699;28;20132;-92
2022/11/03 05:09:10;;;;;;;320.80;36.85;;;13.90;99.90;;;;;;4997963;28;20025;-93
2022/11/03 05:11:40;;;;;;;214.02;33.17;;;13.90;99.90;;;;;;4998082;28;20057;-91
2022/11/03 05:14:21;;;;;;;386.50;37.30;;;13.90;99.90;;;;;;4997488;28;20113;-92
2022/11/03 05:16:54;;;;;;;326.52;37.95;;;13.90;99.90;;;;;;4998706;28;20117;-93
2022/11/03 05:19:36;;;;;;;162.23;28.47;;;13.90;99.90;;;;;;4998172;28;20119;-92
2022/11/03 05:22:04;;;;;;;346.48;37.00;;;13.90;99.90;;;;;;4997876;28;20121;-92
2022/11/03 05:24:37;;;;;;;348.13;39.17;;;13.80;99.90;;;;;;4999343;28;20030;-93
2022/11/03 05:27:15;;;;;;;225.25;31.98;;;13.80;99.90;;;;;;4999684;28;20041;-94
2022/11/03 05:29:43;;;;;;;170.25;30.67;;;13.80;99.90;;;;;;4999518;28;20030;-92
2022/11/03 05:32:32;;;;;;;85.53;23.63;;;13.80;99.90;;;;;;4998213;28;20029;-92
2022/11/03 05:35:00;;;;;;;110.35;24.10;;;13.90;99.90;;;;;;4998040;28;20084;-92
2022/11/03 05:37:28;;;;;;;154.25;27.60;;;13.80;99.90;;;;;;4999209;28;20033;-92
2022/11/03 05:39:58;;;;;;;77.68;22.05;;;13.80;99.90;;;;;;5014959;28;20478;-93
2022/11/03 05:42:41;;;;;;;119.72;25.67;;;13.80;99.90;;;;;;5002573;28;20034;-93
2022/11/03 05:45:31;;;;;;;130.50;24.25;;;13.90;99.90;;;;;;4986015;28;20122;-92
2022/11/03 05:48:01;;;;;;;147.65;25.80;;;13.90;99.90;;;;;;4999088;28;20510;-93
2022/11/03 05:50:33;;;;;;;160.98;28.92;;;14.00;99.90;;;;;;5000771;28;20124;-93
2022/11/03 05:53:37;;;;;;;99.93;23.15;;;13.90;99.90;;;;;;5034298;28;20079;-93
2022/11/03 05:56:06;;;;;;;77.82;23.65;;;14.00;99.90;;;;;;4958962;28;20089;-93
2022/11/03 05:58:42;;;;;;;62.45;20.48;;;14.00;99.90;;;;;;4957560;28;20057;-93
2022/11/03 06:01:31;;;;;;;64.07;21.45;;;14.10;99.90;;;;;;4959887;28;20512;-93
2022/11/03 06:04:13;;;;;;;82.72;22.52;;;14.20;99.90;;;;;;4961702;28;20038;-92
2022/11/03 06:06:40;;;;;;;96.00;28.00;;;14.40;99.90;;;;;;4961115;28;20530;-92
2022/11/03 06:09:38;;;;;;;45.70;19.15;;;14.40;99.90;;;;;;4961319;28;20042;-93
2022/11/03 06:12:17;;;;;;;46.83;18.33;;;14.50;99.90;;;;;;4959711;28;20037;-93
2022/11/03 06:14:45;;;;;;;34.30;16.67;;;14.70;99.90;;;;;;4961107;28;20066;-93
2022/11/03 06:17:28;;;;;;;41.70;17.13;;;14.80;99.90;;;;;;4975080;28;20027;-93
2022/11/03 06:19:59;;;;;;;27.88;15.40;;;15.00;99.90;;;;;;4958974;28;20503;-93
2022/11/03 06:22:38;;;;;;;32.70;15.57;;;15.20;99.90;;;;;;4958334;28;20126;-93
2022/11/03 06:25:32;;;;;;;29.05;13.93;;;15.40;99.90;;;;;;4957927;28;20168;-93
2022/11/03 06:28:02;;;;;;;25.33;14.40;;;15.70;99.90;;;;;;4958520;28;20496;-94
2022/11/03 06:30:32;;;;;;;26.10;14.55;;;16.00;99.90;;;;;;4960754;28;20038;-93
2022/11/03 06:33:06;;;;;;;28.58;14.35;;;16.20;99.90;;;;;;4986960;28;20409;-94
2022/11/03 06:35:34;;;;;;;22.75;14.05;;;16.60;99.90;;;;;;5033621;28;20021;-93
2022/11/03 06:38:26;;;;;;;24.92;14.57;;;17.00;99.90;;;;;;5037187;28;20033;-94
2022/11/03 06:40:53;;;;;;;18.98;13.35;;;17.40;99.90;;;;;;5026140;28;20026;-94
2022/11/03 15:30:26;;;;;;;18.17;11.50;;;20.30;99.90;;;;;;5275191;22;20064;-92
2022/11/03 15:32:56;;;;;;;17.85;10.85;;;20.10;99.90;;;;;;5023026;28;20025;-91
2022/11/03 15:35:26;;;;;;;15.27;11.20;;;20.00;99.90;;;;;;5023374;28;20496;-95
2022/11/03 15:37:54;;;;;;;18.63;11.82;;;19.90;99.90;;;;;;5003720;28;20030;-93
2022/11/03 15:49:03;;;;;;;33.22;18.35;;;19.40;99.90;;;;;;5406534;22;20049;-94
2022/11/03 15:51:30;;;;;;;31.88;17.95;;;19.30;99.90;;;;;;5032522;28;20040;-93
2022/11/03 15:53:56;;;;;;;30.38;16.10;;;19.20;99.90;;;;;;5022236;28;20021;-92
2022/11/03 15:56:23;;;;;;;32.40;15.50;;;19.10;99.90;;;;;;5022149;28;20487;-94
2022/11/03 15:58:49;;;;;;;26.23;15.15;;;19.00;99.90;;;;;;5022184;28;20032;-94
2022/11/03 16:01:16;;;;;;;19.38;13.63;;;19.00;99.90;;;;;;5022191;28;20498;-93
2022/11/03 16:03:43;;;;;;;25.42;14.18;;;19.00;99.90;;;;;;5022111;28;20056;-93
2022/11/03 16:06:12;;;;;;;29.42;14.80;;;18.90;99.90;;;;;;5022036;28;20037;-94
2022/11/03 16:08:39;;;;;;;23.73;13.40;;;18.90;99.90;;;;;;5021793;28;20025;-93
2022/11/03 16:11:09;;;;;;;21.83;13.18;;;18.80;99.90;;;;;;5038459;28;20047;-91
2022/11/03 16:13:36;;;;;;;18.73;12.27;;;18.70;99.90;;;;;;5021956;28;20055;-94
2022/11/03 16:16:03;;;;;;;19.10;12.55;;;18.60;99.90;;;;;;5038598;28;20070;-96
2022/11/03 16:18:33;;;;;;;19.25;13.38;;;18.50;99.90;;;;;;5021929;28;20082;-95
2022/11/03 16:21:00;;;;;;;20.10;13.38;;;18.40;99.90;;;;;;5021646;28;20033;-95
2022/11/03 16:23:27;;;;;;;19.52;12.75;;;18.40;99.90;;;;;;5021736;28;20156;-94
2022/11/03 16:25:53;;;;;;;24.90;13.43;;;18.40;99.90;;;;;;5038552;28;20044;-94
2022/11/03 16:28:20;;;;;;;22.67;13.57;;;18.30;99.90;;;;;;5021707;28;20036;-93
2022/11/03 16:30:47;;;;;;;21.58;12.85;;;18.30;99.90;;;;;;5021511;28;20106;-94
2022/11/03 16:33:13;;;;;;;24.10;14.75;;;18.20;99.90;;;;;;5021650;28;20082;-93
2022/11/03 16:35:40;;;;;;;23.30;13.48;;;18.20;99.90;;;;;;5021401;28;20029;-94
2022/11/03 16:38:08;;;;;;;22.83;14.00;;;18.10;99.90;;;;;;5022030;28;20060;-93
2022/11/03 16:40:37;;;;;;;23.35;15.38;;;18.00;99.90;;;;;;5021665;28;20025;-93
2022/11/03 16:43:07;;;;;;;21.88;14.27;;;18.00;99.90;;;;;;5021258;28;20440;-92
2022/11/03 16:45:34;;;;;;;30.77;17.10;;;17.90;99.90;;;;;;5022007;28;20052;-91
2022/11/03 16:48:00;;;;;;;30.58;17.02;;;17.90;99.90;;;;;;5017704;28;20049;-94
2022/11/03 16:50:27;;;;;;;31.38;18.65;;;17.90;99.90;;;;;;5017968;28;20052;-93
2022/11/03 16:52:54;;;;;;;27.52;17.70;;;17.90;99.90;;;;;;5018586;28;20434;-94
2022/11/03 16:55:21;;;;;;;37.22;19.92;;;17.80;99.90;;;;;;5017891;28;20088;-94
2022/11/03 16:57:48;;;;;;;33.88;19.60;;;17.80;99.90;;;;;;5017871;28;20029;-93
2022/11/03 17:00:17;;;;;;;42.08;23.88;;;17.80;99.90;;;;;;5017666;28;20094;-92
2022/11/03 17:02:46;;;;;;;36.20;21.80;;;17.80;99.90;;;;;;5017543;28;20032;-94
2022/11/03 17:05:18;;;;;;;38.72;21.92;;;17.70;99.90;;;;;;5017520;28;20092;-92
2022/11/03 17:07:45;;;;;;;44.55;22.55;;;17.60;99.90;;;;;;5017690;28;20041;-94
2022/11/03 17:10:12;;;;;;;39.85;21.75;;;17.60;99.90;;;;;;5017894;28;20028;-92
2022/11/03 17:12:40;;;;;;;45.72;24.55;;;17.60;99.90;;;;;;5017566;28;20056;-92
2022/11/03 17:15:10;;;;;;;44.72;23.50;;;17.50;99.90;;;;;;5017529;28;20026;-93
2022/11/03 17:17:37;;;;;;;46.35;24.25;;;17.40;99.90;;;;;;5017478;28;20102;-93
2022/11/03 17:20:05;;;;;;;48.75;27.48;;;17.40;99.90;;;;;;5017681;28;20025;-93
2022/11/03 17:22:32;;;;;;;55.13;28.55;;;17.30;99.90;;;;;;5017525;28;20029;-93
2022/11/03 17:25:00;;;;;;;55.30;28.27;;;17.30;99.90;;;;;;5017497;28;20022;-94
2022/11/03 17:27:40;;;;;;;55.53;29.83;;;17.30;99.90;;;;;;5017319;28;20037;-94
2022/11/03 17:30:12;;;;;;;55.53;28.67;;;17.30;99.90;;;;;;5017058;28;20030;-92
2022/11/03 17:32:41;;;;;;;47.88;25.73;;;17.30;99.90;;;;;;5016831;28;20052;-92
2022/11/03 17:35:22;;;;;;;52.03;28.08;;;17.20;99.90;;;;;;5017448;28;20032;-92
2022/11/03 17:37:50;;;;;;;53.00;28.23;;;17.20;99.90;;;;;;5017083;28;20075;-93
2022/11/03 17:40:24;;;;;;;51.35;27.88;;;17.10;99.90;;;;;;5016990;28;20029;-94
2022/11/03 17:42:51;;;;;;;52.40;26.67;;;17.10;99.90;;;;;;5017933;28;20434;-93
2022/11/03 17:45:20;;;;;;;45.25;24.95;;;17.00;99.90;;;;;;5017174;28;20034;-93
2022/11/03 17:47:50;;;;;;;47.05;26.23;;;17.00;99.90;;;;;;5016629;28;20491;-93
2022/11/03 17:50:20;;;;;;;46.78;24.55;;;16.90;99.90;;;;;;5016750;28;20032;-92
2022/11/03 17:52:48;;;;;;;51.92;24.98;;;16.90;99.90;;;;;;5033267;28;20036;-93
2022/11/03 17:55:34;;;;;;;44.15;24.67;;;16.80;99.90;;;;;;5016890;28;20021;-94
2022/11/03 17:58:03;;;;;;;46.47;24.45;;;16.80;99.90;;;;;;5016712;28;20030;-92
2022/11/03 18:00:30;;;;;;;52.97;26.85;;;16.70;99.90;;;;;;5018699;28;20468;-92
2022/11/03 18:03:00;;;;;;;45.97;25.30;;;16.70;99.90;;;;;;5016787;28;20479;-93
2022/11/03 18:05:35;;;;;;;49.00;24.85;;;16.70;99.90;;;;;;5018303;28;20053;-95
2022/11/03 18:08:09;;;;;;;46.08;24.23;;;16.70;99.90;;;;;;5017156;28;20088;-94
2022/11/03 18:10:45;;;;;;;47.90;24.90;;;16.60;99.90;;;;;;5016711;28;20033;-93
2022/11/03 18:13:20;;;;;;;43.38;23.63;;;16.60;99.90;;;;;;5017068;28;20116;-93
2022/11/03 18:15:55;;;;;;;41.80;24.15;;;16.60;99.90;;;;;;5016672;28;20033;-94
2022/11/03 18:18:30;;;;;;;42.83;23.90;;;16.60;99.90;;;;;;5016928;28;20029;-92
2022/11/03 18:20:58;;;;;;;48.13;24.95;;;16.60;99.90;;;;;;5016584;28;20030;-93
2022/11/03 18:23:29;;;;;;;43.22;24.42;;;16.50;99.90;;;;;;5016486;28;20026;-93
2022/11/03 18:25:58;;;;;;;48.70;23.83;;;16.50;99.90;;;;;;5016455;28;20030;-93
2022/11/03 18:28:25;;;;;;;45.67;24.05;;;16.50;99.90;;;;;;5016557;28;20029;-94
2022/11/03 18:30:54;;;;;;;40.72;23.17;;;16.50;99.90;;;;;;5016622;28;20041;-93
2022/11/03 18:33:33;;;;;;;39.80;23.20;;;16.50;99.90;;;;;;5016470;28;20049;-92
2022/11/03 18:36:09;;;;;;;39.78;22.48;;;16.40;99.90;;;;;;5016456;28;20056;-93
2022/11/03 18:38:39;;;;;;;42.70;23.80;;;16.40;99.90;;;;;;5016641;28;20131;-92
2022/11/03 18:41:49;;;;;;;47.78;24.15;;;16.40;99.90;;;;;;5016437;28;20088;-93
2022/11/03 18:44:23;;;;;;;43.60;22.75;;;16.40;99.90;;;;;;5033288;28;20367;-91
2022/11/03 18:46:51;;;;;;;37.03;22.63;;;16.50;99.90;;;;;;5020304;28;20048;-95
2022/11/03 18:49:19;;;;;;;41.38;21.95;;;16.40;99.90;;;;;;5020432;28;20045;-92
2022/11/03 18:51:49;;;;;;;40.20;21.55;;;16.40;99.90;;;;;;5020246;28;20025;-94
2022/11/03 18:54:23;;;;;;;39.65;21.50;;;16.30;99.90;;;;;;5020031;28;20021;-93
2022/11/03 18:56:52;;;;;;;40.03;20.60;;;16.30;99.90;;;;;;5020316;28;20041;-94
2022/11/03 18:59:27;;;;;;;36.03;20.58;;;16.20;99.90;;;;;;5019993;28;20048;-94
2022/11/03 19:02:14;;;;;;;37.13;20.80;;;16.10;99.90;;;;;;5019911;28;20491;-93
2022/11/03 19:04:40;;;;;;;41.75;22.00;;;16.10;99.90;;;;;;5019795;28;20029;-94
2022/11/03 19:07:21;;;;;;;43.80;22.30;;;16.10;99.90;;;;;;5019907;28;20091;-93
2022/11/03 19:09:51;;;;;;;39.50;22.20;;;16.00;99.90;;;;;;5020455;28;20112;-93
2022/11/03 19:12:19;;;;;;;35.10;21.00;;;15.90;99.90;;;;;;5019613;28;20089;-94
2022/11/03 19:14:48;;;;;;;34.92;21.67;;;15.90;99.90;;;;;;5019811;28;20025;-94
2022/11/03 19:17:17;;;;;;;36.25;22.35;;;15.90;99.90;;;;;;5019788;28;20541;-93
2022/11/03 19:19:45;;;;;;;35.58;20.10;;;15.90;99.90;;;;;;5019811;28;20486;-93
2022/11/03 19:22:14;;;;;;;37.25;21.05;;;15.80;99.90;;;;;;5036256;28;20033;-93
2022/11/03 19:24:42;;;;;;;40.28;21.15;;;15.80;99.90;;;;;;5019715;28;20033;-93
2022/11/03 19:27:27;;;;;;;31.88;21.05;;;15.70;99.90;;;;;;5020035;28;20037;-93
2022/11/03 19:30:02;;;;;;;37.17;21.17;;;15.70;99.90;;;;;;5020260;28;20029;-93
2022/11/03 19:32:36;;;;;;;41.75;22.35;;;15.80;99.90;;;;;;5020252;28;20041;-93
2022/11/03 19:35:18;;;;;;;46.10;22.75;;;15.80;99.90;;;;;;5019639;28;20029;-92
2022/11/03 19:37:48;;;;;;;39.58;25.00;;;15.80;99.90;;;;;;5019148;28;20033;-94
2022/11/03 19:40:17;;;;;;;43.42;26.50;;;15.80;99.90;;;;;;5019286;28;20028;-94
2022/11/03 19:42:47;;;;;;;60.03;35.88;;;15.90;99.90;;;;;;5019336;28;20049;-94
2022/11/03 19:45:17;;;;;;;127.93;57.03;;;16.00;99.90;;;;;;5019231;28;20491;-92
2022/11/03 19:47:58;;;;;;;117.72;53.15;;;16.00;99.90;;;;;;5018687;28;20053;-93
2022/11/03 19:50:31;;;;;;;114.47;51.78;;;16.00;99.90;;;;;;5019412;28;20088;-95
2022/11/03 19:53:01;;;;;;;132.60;50.45;;;16.10;99.90;;;;;;5019015;28;20053;-92
2022/11/03 19:55:41;;;;;;;338.17;72.15;;;16.00;99.90;;;;;;5018282;28;20029;-93
2022/11/03 19:58:26;;;;;;;324.42;60.63;;;16.00;99.90;;;;;;5018991;28;20033;-93
2022/11/03 20:00:53;;;;;;;394.25;55.00;;;16.00;99.90;;;;;;5019059;28;20561;-91
2022/11/03 20:03:21;;;;;;;561.85;63.63;;;16.00;99.90;;;;;;5018802;28;20056;-96
2022/11/03 20:05:52;;;;;;;304.92;50.22;;;16.00;99.90;;;;;;5018645;28;20120;-94
2022/11/03 20:08:22;;;;;;;460.73;51.05;;;15.90;99.90;;;;;;5018893;28;20475;-95
2022/11/03 20:10:49;;;;;;;495.02;50.22;;;15.90;99.90;;;;;;5019112;28;20036;-95
2022/11/03 20:13:20;;;;;;;348.05;49.00;;;15.90;99.90;;;;;;5018688;28;20025;-94
2022/11/03 20:15:47;;;;;;;435.92;58.00;;;15.90;99.90;;;;;;5018645;28;20498;-94
2022/11/03 20:18:15;;;;;;;314.38;52.80;;;15.90;99.90;;;;;;5019321;28;20041;-93
2022/11/03 20:20:46;;;;;;;228.23;46.33;;;15.90;99.90;;;;;;5019092;28;20033;-93
2022/11/03 20:23:21;;;;;;;230.15;51.13;;;15.80;99.90;;;;;;5019325;28;20037;-92
2022/11/03 20:25:48;;;;;;;262.05;63.22;;;15.70;99.90;;;;;;5018551;28;20040;-94
2022/11/03 20:28:22;;;;;;;311.70;60.78;;;15.70;99.90;;;;;;5018436;28;20037;-92
2022/11/03 20:30:50;;;;;;;241.07;55.28;;;15.60;99.90;;;;;;5018565;28;20521;-94
2022/11/03 20:33:19;;;;;;;218.13;58.83;;;15.70;99.90;;;;;;5018314;28;20033;-94
2022/11/03 20:35:47;;;;;;;220.43;49.22;;;15.60;99.90;;;;;;5019563;28;20437;-94
2022/11/03 20:38:18;;;;;;;94.35;36.88;;;15.60;99.90;;;;;;5019036;28;20032;-93
2022/11/03 20:40:45;;;;;;;253.32;54.67;;;15.50;99.90;;;;;;5018567;28;20093;-92
2022/11/03 20:43:41;;;;;;;307.13;57.40;;;15.40;99.90;;;;;;5018701;28;20120;-93
2022/11/03 20:46:21;;;;;;;234.50;47.17;;;15.40;99.90;;;;;;5018061;28;20033;-94
2022/11/03 20:48:48;;;;;;;99.70;34.67;;;15.20;99.90;;;;;;5018064;28;20123;-92
2022/11/03 20:51:17;;;;;;;86.18;32.67;;;15.20;99.90;;;;;;5021350;28;20592;-94
2022/11/03 20:53:44;;;;;;;81.57;32.38;;;15.10;99.90;;;;;;5018441;28;20041;-93
2022/11/03 20:56:18;;;;;;;195.35;37.55;;;15.00;99.90;;;;;;5019323;28;20025;-93
2022/11/03 20:58:45;;;;;;;81.22;32.47;;;14.90;99.90;;;;;;5019837;28;20029;-94
2022/11/03 21:21:34;;;;;;;240.32;40.97;;;14.80;99.90;;;;;;5014767;28;20033;-93
2022/11/03 21:24:10;;;;;;;195.70;35.22;;;14.80;99.90;;;;;;4999414;28;20037;-92
2022/11/03 21:26:38;;;;;;;137.18;35.45;;;14.90;99.90;;;;;;4999069;28;20038;-92
2022/11/03 21:29:09;;;;;;;94.10;30.05;;;15.00;99.90;;;;;;4998486;28;20030;-94
2022/11/03 21:31:47;;;;;;;296.15;48.17;;;15.00;99.90;;;;;;4999156;28;20479;-93
2022/11/03 21:34:20;;;;;;;87.82;31.40;;;15.00;99.90;;;;;;4999900;28;20037;-92
2022/11/03 21:36:47;;;;;;;110.07;31.63;;;15.10;99.90;;;;;;4998240;28;20026;-94
2022/11/03 21:39:13;;;;;;;113.78;32.45;;;15.10;99.90;;;;;;4997927;28;20036;-94
2022/11/03 21:44:35;;;;;;;172.43;39.67;;;15.20;99.90;;;;;;5014974;28;20073;-92
2022/11/03 21:47:02;;;;;;;164.10;42.10;;;15.20;99.90;;;;;;5014311;28;20046;-94
2022/11/03 21:50:03;;;;;;;128.27;31.17;;;15.30;99.90;;;;;;5000376;28;20022;-95
2022/11/03 21:52:33;;;;;;;200.10;35.80;;;15.30;99.90;;;;;;4999365;28;20089;-93
2022/11/03 21:55:17;;;;;;;131.63;31.38;;;15.30;99.90;;;;;;5000112;28;20033;-95
2022/11/03 21:58:17;;;;;;;90.85;29.33;;;15.40;99.90;;;;;;4999504;28;20042;-94
2022/11/03 22:00:47;;;;;;;327.83;41.70;;;15.40;99.90;;;;;;4965361;28;20058;-93
2022/11/03 22:03:16;;;;;;;281.63;42.25;;;15.40;99.90;;;;;;4958247;28;20034;-92
2022/11/03 22:05:43;;;;;;;200.70;36.97;;;15.40;99.90;;;;;;4958721;28;20043;-91
2022/11/03 22:08:12;;;;;;;179.82;33.65;;;15.40;99.90;;;;;;4958383;28;20143;-93
2022/11/03 22:10:42;;;;;;;113.43;27.88;;;15.50;99.90;;;;;;4943724;28;20041;-94
2022/11/03 22:13:52;;;;;;;195.70;32.55;;;15.50;99.90;;;;;;4941022;29;20032;-94
2022/11/03 22:28:28;;;;;;;137.85;26.52;;;15.60;99.90;;;;;;4938825;28;20453;-93
2022/11/03 22:36:24;;;;;;;659.63;71.38;;;15.60;99.90;;;;;;4942686;28;20043;-92
2022/11/03 22:47:06;;;;;;;101.43;28.02;;;15.60;99.90;;;;;;4957473;28;20048;-94
2022/11/03 22:49:32;;;;;;;260.73;42.15;;;15.60;99.90;;;;;;4957016;28;20031;-92